Time;durP1;ratioP1;P1;durP2;ratioP2;P2;SDS_P1;SDS_P2;PMS_P1;PMS_P2;Temp;Humidity;BMP_temperature;BMP_pressure;BME280_temperature;BME280_humidity;BME280_pressure;Samples;Min_cycle;Max_cycle;Signal;HPM_P1;HPM_P2
2021/01/25 18:18:21;;;;;;;;;;;;;;;6.32;100.00;96509.03;1796303;78;20222;-63
2021/01/25 18:20:52;;;;;;;;;;;;;;;6.27;100.00;96505.25;1770209;80;20118;-63
2021/01/25 18:23:20;;;;;;;;;;;;;;;6.28;100.00;96506.97;1769111;80;21358;-62
2021/01/25 18:25:50;;;;;;;;;;;;;;;6.30;100.00;96505.61;1772703;80;20183;-61
2021/01/25 18:28:18;;;;;;;;;;;;;;;6.31;100.00;96497.70;1740522;81;20139;-63
2021/01/25 18:30:48;;;;;;;;;;;;;;;6.30;100.00;96497.30;1732765;81;20142;-63
2021/01/25 18:33:20;;;;;;;;;;;;;;;6.28;100.00;96487.78;1721527;82;20158;-63
2021/01/25 18:35:50;;;;;;;;;;;;;;;6.28;100.00;96491.26;1728807;82;21201;-63
2021/01/25 18:38:19;;;;;;;;;;;;;;;6.29;100.00;96485.57;1727741;81;20134;-63
2021/01/25 18:40:48;;;;;;;;;;;;;;;6.28;100.00;96492.56;1698439;83;20161;-62
2021/01/25 18:43:17;;;;;;;;;;;;;;;6.28;100.00;96478.17;1720277;82;20136;-64
2021/01/25 18:45:46;;;;;;;;;;;;;;;6.29;100.00;96485.12;1718458;82;20160;-63
2021/01/25 18:48:15;;;;;;;;;;;;;;;6.30;100.00;96473.73;1724196;82;22187;-62
2021/01/25 18:50:44;;;;;;;;;;;;;;;6.32;100.00;96477.62;1706471;84;20185;-62
2021/01/25 18:53:13;;;;;;;;;;;;;;;6.33;100.00;96467.55;1706627;84;20229;-63
2021/01/25 18:55:42;;;;;;;;;;;;;;;6.31;100.00;96479.37;1706428;84;20233;-62
2021/01/25 18:58:13;;;;;;;;;;;;;;;6.32;100.00;96480.23;1706488;84;20253;-64
2021/01/25 19:03:35;;;;;;;;;;;;;;;6.29;100.00;96485.12;1702690;83;20599;-62
2021/01/25 19:06:05;;;;;;;;;;;;;;;6.29;100.00;96486.87;1702123;84;20229;-61
2021/01/25 19:08:34;;;;;;;;;;;;;;;6.26;100.00;96481.29;1686028;83;20501;-62
2021/01/25 19:11:04;;;;;;;;;;;;;;;6.27;100.00;96490.00;1697866;83;20179;-62
2021/01/25 19:13:34;;;;;;;;;;;;;;;6.24;100.00;96484.86;1709363;82;20545;-61
2021/01/25 19:16:03;;;;;;;;;;;;;;;6.23;100.00;96490.55;1692303;84;20158;-62
2021/01/25 19:18:34;;;;;;;;;;;;;;;6.22;100.00;96498.00;1692268;84;20246;-62
2021/01/25 19:21:04;;;;;;;;;;;;;;;6.24;100.00;96538.52;1692955;84;20158;-63
2021/01/25 19:23:33;;;;;;;;;;;;;;;6.24;100.00;96543.30;1692921;84;20203;-62
2021/01/25 19:26:03;;;;;;;;;;;;;;;6.14;100.00;96547.53;1692169;84;22264;-62
2021/01/25 19:28:31;;;;;;;;;;;;;;;5.99;100.00;96547.53;1690166;84;20246;-62
2021/01/25 19:31:00;;;;;;;;;;;;;;;5.83;100.00;96560.62;1694460;84;20158;-62
2021/01/25 19:33:30;;;;;;;;;;;;;;;5.68;100.00;96587.63;1695677;83;20122;-61
2021/01/25 19:35:58;;;;;;;;;;;;;;;5.55;100.00;96579.68;1708384;83;20252;-62
2021/01/25 19:38:30;;;;;;;;;;;;;;;5.34;100.00;96595.95;1691979;84;22277;-62
2021/01/25 19:40:58;;;;;;;;;;;;;;;5.13;100.00;96595.16;1687830;85;20726;-61
2021/01/25 19:43:27;;;;;;;;;;;;;;;4.94;100.00;96612.61;1687230;84;20481;-61
2021/01/25 19:45:58;;;;;;;;;;;;;;;4.73;100.00;96609.20;1687201;84;20495;-61
2021/01/25 19:48:27;;;;;;;;;;;;;;;4.54;100.00;96614.41;1689011;83;20521;-62
2021/01/25 19:50:57;;;;;;;;;;;;;;;4.33;100.00;96626.20;1688878;84;21220;-62
2021/01/25 19:53:25;;;;;;;;;;;;;;;4.11;100.00;96624.47;1691968;84;20249;-61
2021/01/25 19:55:56;;;;;;;;;;;;;;;3.94;100.00;96637.00;1690861;84;20272;-64
2021/01/25 19:58:25;;;;;;;;;;;;;;;3.79;100.00;96633.80;1701686;83;20133;-62
2021/01/25 20:00:53;;;;;;;;;;;;;;;3.66;100.00;96644.02;1689429;84;20505;-62
2021/01/25 20:03:22;;;;;;;;;;;;;;;3.50;100.00;96646.95;1684813;84;21189;-61
2021/01/25 20:05:53;;;;;;;;;;;;;;;3.36;100.00;96651.11;1687228;85;21019;-62
2021/01/25 20:08:22;;;;;;;;;;;;;;;3.23;100.00;96638.70;1686962;85;20488;-63
2021/01/25 20:10:50;;;;;;;;;;;;;;;3.10;100.00;96667.16;1681925;85;20167;-62
2021/01/25 20:13:20;;;;;;;;;;;;;;;2.97;100.00;96679.52;1683925;85;20178;-62
2021/01/25 20:15:55;;;;;;;;;;;;;;;2.86;100.00;96680.56;1682733;85;22110;-62
2021/01/25 20:18:24;;;;;;;;;;;;;;;2.75;100.00;96691.11;1685041;84;20139;-62
2021/01/25 20:20:54;;;;;;;;;;;;;;;2.60;100.00;96707.81;1678536;83;20237;-62
2021/01/25 20:23:24;;;;;;;;;;;;;;;2.45;100.00;96704.98;1687066;85;20159;-62
2021/01/25 20:25:53;;;;;;;;;;;;;;;2.32;100.00;96711.19;1685746;84;20222;-62
2021/01/25 20:28:26;;;;;;;;;;;;;;;2.23;100.00;96716.52;1677436;85;22154;-62
2021/01/25 20:30:56;;;;;;;;;;;;;;;2.13;100.00;96714.46;1683316;85;20506;-62
2021/01/25 20:33:30;;;;;;;;;;;;;;;2.08;100.00;96729.26;1683130;85;20115;-61
2021/01/25 20:35:59;;;;;;;;;;;;;;;2.01;100.00;96724.14;1684156;85;20221;-63
2021/01/25 20:38:29;;;;;;;;;;;;;;;1.95;100.00;96734.62;1694447;83;20489;-63
2021/01/25 20:40:59;;;;;;;;;;;;;;;1.87;100.00;96747.22;1683247;83;22221;-63
2021/01/25 20:43:31;;;;;;;;;;;;;;;1.82;100.00;96742.52;1683060;84;20824;-65
2021/01/25 20:46:00;;;;;;;;;;;;;;;1.79;100.00;96756.84;1684951;83;20367;-64
2021/01/25 20:48:29;;;;;;;;;;;;;;;1.75;100.00;96760.78;1686162;85;20509;-68
2021/01/25 20:50:58;;;;;;;;;;;;;;;1.72;100.00;96769.91;1660903;85;20221;-67
2021/01/25 20:53:28;;;;;;;;;;;;;;;1.68;100.00;96788.56;1686766;85;22314;-66
2021/01/25 20:56:03;;;;;;;;;;;;;;;1.64;100.00;96786.02;1674677;85;21052;-68
2021/01/25 20:58:34;;;;;;;;;;;;;;;1.61;100.00;96785.60;1670818;85;20174;-68
2021/01/25 21:01:03;;;;;;;;;;;;;;;1.54;100.00;96796.92;1670740;85;20236;-67
2021/01/25 21:03:32;;;;;;;;;;;;;;;1.49;100.00;96806.49;1666000;85;20606;-68
2021/01/25 21:06:01;;;;;;;;;;;;;;;1.43;100.00;96807.84;1661681;85;21226;-68
2021/01/25 21:08:30;;;;;;;;;;;;;;;1.40;100.00;96818.22;1664510;85;20131;-66
2021/01/25 21:11:00;;;;;;;;;;;;;;;1.39;100.00;96826.45;1667058;85;20246;-67
2021/01/25 21:13:29;;;;;;;;;;;;;;;1.38;100.00;96827.77;1669871;85;20657;-67
2021/01/25 21:15:59;;;;;;;;;;;;;;;1.33;100.00;96827.80;1667326;85;20261;-67
2021/01/25 21:18:28;;;;;;;;;;;;;;;1.32;100.00;96837.76;1665177;85;21460;-67
2021/01/25 21:20:57;;;;;;;;;;;;;;;1.33;100.00;96846.41;1669273;85;20488;-65
2021/01/25 21:23:27;;;;;;;;;;;;;;;1.32;100.00;96839.49;1664423;85;20226;-67
2021/01/25 21:25:56;;;;;;;;;;;;;;;1.33;100.00;96856.80;1667254;85;20520;-67
2021/01/25 21:28:26;;;;;;;;;;;;;;;1.34;100.00;96865.02;1663034;85;20494;-66
2021/01/25 21:30:55;;;;;;;;;;;;;;;1.32;100.00;96880.61;1663016;85;22131;-66
2021/01/25 21:33:26;;;;;;;;;;;;;;;1.30;100.00;96885.39;1663930;85;20161;-66
2021/01/25 21:35:55;;;;;;;;;;;;;;;1.27;100.00;96881.08;1662718;86;20515;-66
2021/01/25 21:38:23;;;;;;;;;;;;;;;1.25;100.00;96877.19;1663024;85;20193;-67
2021/01/25 21:40:53;;;;;;;;;;;;;;;1.22;100.00;96872.45;1663975;85;20491;-67
2021/01/25 21:43:22;;;;;;;;;;;;;;;1.21;100.00;96878.08;1662965;86;21286;-66
2021/01/25 21:45:51;;;;;;;;;;;;;;;1.24;100.00;96883.26;1668527;85;20135;-67
2021/01/25 21:48:20;;;;;;;;;;;;;;;1.26;100.00;96889.30;1666656;85;20145;-66
2021/01/25 21:50:49;;;;;;;;;;;;;;;1.24;100.00;96895.38;1664460;85;20511;-67
2021/01/25 21:53:19;;;;;;;;;;;;;;;1.21;100.00;96898.00;1663126;85;20320;-65
2021/01/25 21:55:48;;;;;;;;;;;;;;;1.18;100.00;96901.91;1669104;85;22232;-67
2021/01/25 21:58:17;;;;;;;;;;;;;;;1.16;100.00;96914.03;1674684;85;20632;-67
2021/01/25 22:00:46;;;;;;;;;;;;;;;1.15;100.00;96912.31;1677357;85;20246;-68
2021/01/25 22:03:14;;;;;;;;;;;;;;;1.13;100.00;96917.51;1663296;85;20490;-66
2021/01/25 22:05:43;;;;;;;;;;;;;;;1.12;100.00;96910.59;1673068;85;20250;-65
2021/01/25 22:08:12;;;;;;;;;;;;;;;1.13;100.00;96918.81;1669033;85;21326;-67
2021/01/25 22:10:43;;;;;;;;;;;;;;;1.14;100.00;96924.43;1662615;86;20519;-66
2021/01/25 22:13:13;;;;;;;;;;;;;;;1.18;100.00;96936.96;1668264;85;20238;-67
2021/01/25 22:15:44;;;;;;;;;;;;;;;1.20;100.00;96941.71;1678044;85;20135;-66
2021/01/25 22:18:14;;;;;;;;;;;;;;;1.21;100.00;96938.24;1677857;85;20123;-66
2021/01/25 22:20:43;;;;;;;;;;;;;;;1.19;100.00;96930.46;1677843;85;21415;-67
2021/01/25 22:23:15;;;;;;;;;;;;;;;1.20;100.00;96935.22;1679255;85;20138;-67
2021/01/25 22:25:45;;;;;;;;;;;;;;;1.21;100.00;96940.84;1679562;85;20506;-66
2021/01/25 22:28:15;;;;;;;;;;;;;;;1.19;100.00;96940.84;1667927;85;20239;-67
2021/01/25 22:30:45;;;;;;;;;;;;;;;1.20;100.00;96956.00;1662774;85;20152;-67
2021/01/25 22:33:14;;;;;;;;;;;;;;;1.20;100.00;96958.16;1663824;85;20524;-66
2021/01/25 22:35:43;;;;;;;;;;;;;;;1.21;100.00;96965.08;1662670;86;20256;-67
2021/01/25 22:38:14;;;;;;;;;;;;;;;1.22;100.00;96972.44;1675312;85;20246;-66
2021/01/25 22:40:50;;;;;;;;;;;;;;;1.24;100.00;96959.87;1671153;85;20228;-66
2021/01/25 22:43:19;;;;;;;;;;;;;;;1.24;100.00;96973.29;1662859;86;20243;-67
2021/01/25 22:45:49;;;;;;;;;;;;;;;1.24;100.00;96974.16;1670489;85;22631;-68
2021/01/25 22:48:20;;;;;;;;;;;;;;;1.24;100.00;96983.24;1665072;85;20273;-67
2021/01/25 22:50:50;;;;;;;;;;;;;;;1.24;100.00;96975.45;1679502;85;20234;-66
2021/01/25 22:53:19;;;;;;;;;;;;;;;1.21;100.00;96976.77;1663886;85;20224;-66
2021/01/25 22:55:49;;;;;;;;;;;;;;;1.21;100.00;96983.26;1672420;85;20154;-66
2021/01/25 22:58:18;;;;;;;;;;;;;;;1.24;100.00;96991.03;1676827;85;22137;-67
2021/01/25 23:00:48;;;;;;;;;;;;;;;1.26;100.00;96988.43;1666110;85;20231;-67
2021/01/25 23:03:18;;;;;;;;;;;;;;;1.26;100.00;96998.82;1665926;85;20505;-67
2021/01/25 23:05:49;;;;;;;;;;;;;;;1.28;100.00;97007.91;1662910;86;20140;-67
2021/01/25 23:08:20;;;;;;;;;;;;;;;1.26;100.00;97008.77;1654341;86;20253;-66
2021/01/25 23:10:49;;;;;;;;;;;;;;;1.24;100.00;97007.91;1669270;85;21403;-65
2021/01/25 23:13:19;;;;;;;;;;;;;;;1.24;100.00;97013.55;1679525;85;20626;-65
2021/01/25 23:15:58;;;;;;;;;;;;;;;1.27;100.00;97030.41;1678224;85;20267;-66
2021/01/25 23:18:29;;;;;;;;;;;;;;;1.26;100.00;97026.09;1679488;85;20664;-65
2021/01/25 23:21:03;;;;;;;;;;;;;;;1.23;100.00;97030.86;1678146;85;20518;-65
2021/01/25 23:23:33;;;;;;;;;;;;;;;1.21;100.00;97028.70;1678332;85;22303;-66
2021/01/25 23:26:05;;;;;;;;;;;;;;;1.22;100.00;97036.05;1679523;85;20499;-66
2021/01/25 23:28:35;;;;;;;;;;;;;;;1.23;100.00;97041.25;1670516;85;20240;-66
2021/01/25 23:31:04;;;;;;;;;;;;;;;1.24;100.00;97038.22;1662610;85;20244;-65
2021/01/25 23:33:33;;;;;;;;;;;;;;;1.20;100.00;97043.85;1670574;85;20517;-65
2021/01/25 23:36:05;;;;;;;;;;;;;;;1.19;100.00;97048.62;1679582;85;21131;-65
2021/01/25 23:38:35;;;;;;;;;;;;;;;1.21;100.00;97054.67;1677693;85;20628;-64
2021/01/25 23:41:05;;;;;;;;;;;;;;;1.21;100.00;97052.08;1677717;85;20264;-65
2021/01/25 23:43:38;;;;;;;;;;;;;;;1.20;100.00;97063.77;1662575;86;20501;-65
2021/01/25 23:46:11;;;;;;;;;;;;;;;1.20;100.00;97063.77;1671714;85;20286;-64
2021/01/25 23:48:40;;;;;;;;;;;;;;;1.18;100.00;97066.80;1679568;85;22211;-64
2021/01/25 23:51:09;;;;;;;;;;;;;;;1.16;100.00;97072.00;1679536;85;20534;-66
2021/01/25 23:53:39;;;;;;;;;;;;;;;1.14;100.00;97095.80;1675901;85;20493;-66
2021/01/25 23:56:08;;;;;;;;;;;;;;;1.13;100.00;97093.21;1666440;85;20200;-66
2021/01/25 23:58:39;;;;;;;;;;;;;;;1.11;100.00;97105.34;1662911;85;20223;-66
